sensor_id;sensor_type;location;lat;lon;timestamp;temperature;humidity
64012;DHT22;50211;52.768;12.124;2023-06-10T00:01:49;15.30;99.90
64012;DHT22;50211;52.768;12.124;2023-06-10T00:04:15;15.20;99.90
64012;DHT22;50211;52.768;12.124;2023-06-10T00:06:43;15.20;99.90
64012;DHT22;50211;52.768;12.124;2023-06-10T00:09:09;15.20;99.90
64012;DHT22;50211;52.768;12.124;2023-06-10T00:11:36;15.30;99.90
64012;DHT22;50211;52.768;12.124;2023-06-10T00:14:02;15.20;99.90
64012;DHT22;50211;52.768;12.124;2023-06-10T00:16:28;15.10;99.90
64012;DHT22;50211;52.768;12.124;2023-06-10T00:18:53;15.00;99.90
64012;DHT22;50211;52.768;12.124;2023-06-10T00:21:27;15.00;99.90
64012;DHT22;50211;52.768;12.124;2023-06-10T00:23:53;14.90;99.90
64012;DHT22;50211;52.768;12.124;2023-06-10T00:26:18;14.90;99.90
64012;DHT22;50211;52.768;12.124;2023-06-10T00:28:44;14.90;99.90
64012;DHT22;50211;52.768;12.124;2023-06-10T00:31:10;14.70;99.90
64012;DHT22;50211;52.768;12.124;2023-06-10T00:33:36;14.60;99.90
64012;DHT22;50211;52.768;12.124;2023-06-10T00:36:01;14.70;99.90
64012;DHT22;50211;52.768;12.124;2023-06-10T00:38:27;14.70;99.90
64012;DHT22;50211;52.768;12.124;2023-06-10T00:40:52;14.70;99.90
64012;DHT22;50211;52.768;12.124;2023-06-10T00:43:18;14.70;99.90
64012;DHT22;50211;52.768;12.124;2023-06-10T00:45:43;14.70;99.90
64012;DHT22;50211;52.768;12.124;2023-06-10T00:48:09;14.70;99.90
64012;DHT22;50211;52.768;12.124;2023-06-10T00:50:35;14.60;99.90
64012;DHT22;50211;52.768;12.124;2023-06-10T00:53:04;14.60;99.90
64012;DHT22;50211;52.768;12.124;2023-06-10T00:55:31;14.60;99.90
64012;DHT22;50211;52.768;12.124;2023-06-10T00:57:58;14.70;99.90
64012;DHT22;50211;52.768;12.124;2023-06-10T01:00:23;14.60;99.90
64012;DHT22;50211;52.768;12.124;2023-06-10T01:02:49;14.60;99.90
64012;DHT22;50211;52.768;12.124;2023-06-10T01:05:17;14.70;99.90
64012;DHT22;50211;52.768;12.124;2023-06-10T01:07:50;14.70;99.90
64012;DHT22;50211;52.768;12.124;2023-06-10T01:10:25;14.60;99.90
64012;DHT22;50211;52.768;12.124;2023-06-10T01:13:02;14.60;99.90
64012;DHT22;50211;52.768;12.124;2023-06-10T01:15:32;14.60;99.90
64012;DHT22;50211;52.768;12.124;2023-06-10T01:18:02;14.60;99.90
64012;DHT22;50211;52.768;12.124;2023-06-10T01:20:30;14.60;99.90
64012;DHT22;50211;52.768;12.124;2023-06-10T01:22:58;14.50;99.90
64012;DHT22;50211;52.768;12.124;2023-06-10T01:25:24;14.50;99.90
64012;DHT22;50211;52.768;12.124;2023-06-10T01:31:25;14.40;99.90
64012;DHT22;50211;52.768;12.124;2023-06-10T01:33:59;14.50;99.90
64012;DHT22;50211;52.768;12.124;2023-06-10T01:36:26;14.50;99.90
64012;DHT22;50211;52.768;12.124;2023-06-10T01:38:53;14.50;99.90
64012;DHT22;50211;52.768;12.124;2023-06-10T01:41:19;14.50;99.90
64012;DHT22;50211;52.768;12.124;2023-06-10T01:43:46;14.50;99.90
64012;DHT22;50211;52.768;12.124;2023-06-10T01:46:12;14.40;99.90
64012;DHT22;50211;52.768;12.124;2023-06-10T01:48:38;14.40;99.90
64012;DHT22;50211;52.768;12.124;2023-06-10T01:51:04;14.30;99.90
64012;DHT22;50211;52.768;12.124;2023-06-10T01:53:30;14.30;99.90
64012;DHT22;50211;52.768;12.124;2023-06-10T01:55:55;14.30;99.90
64012;DHT22;50211;52.768;12.124;2023-06-10T01:58:21;14.30;99.90
64012;DHT22;50211;52.768;12.124;2023-06-10T02:00:47;14.30;99.90
64012;DHT22;50211;52.768;12.124;2023-06-10T02:03:12;14.30;99.90
64012;DHT22;50211;52.768;12.124;2023-06-10T02:05:38;14.30;99.90
64012;DHT22;50211;52.768;12.124;2023-06-10T02:08:04;14.30;99.90
64012;DHT22;50211;52.768;12.124;2023-06-10T02:10:30;14.20;99.90
64012;DHT22;50211;52.768;12.124;2023-06-10T02:12:55;14.10;99.90
64012;DHT22;50211;52.768;12.124;2023-06-10T02:15:21;14.00;99.90
64012;DHT22;50211;52.768;12.124;2023-06-10T02:17:46;13.90;99.90
64012;DHT22;50211;52.768;12.124;2023-06-10T02:20:12;13.90;99.90
64012;DHT22;50211;52.768;12.124;2023-06-10T02:22:38;13.90;99.90
64012;DHT22;50211;52.768;12.124;2023-06-10T02:25:05;13.90;99.90
64012;DHT22;50211;52.768;12.124;2023-06-10T02:27:30;13.90;99.90
64012;DHT22;50211;52.768;12.124;2023-06-10T02:29:57;13.90;99.90
64012;DHT22;50211;52.768;12.124;2023-06-10T02:32:23;13.90;99.90
64012;DHT22;50211;52.768;12.124;2023-06-10T02:34:48;13.80;99.90
64012;DHT22;50211;52.768;12.124;2023-06-10T02:37:17;13.60;99.90
64012;DHT22;50211;52.768;12.124;2023-06-10T02:39:42;13.40;99.90
64012;DHT22;50211;52.768;12.124;2023-06-10T02:42:08;13.40;99.90
64012;DHT22;50211;52.768;12.124;2023-06-10T02:44:33;13.40;99.90
64012;DHT22;50211;52.768;12.124;2023-06-10T02:46:59;13.60;99.90
64012;DHT22;50211;52.768;12.124;2023-06-10T02:49:25;13.60;99.90
64012;DHT22;50211;52.768;12.124;2023-06-10T02:51:53;13.70;99.90
64012;DHT22;50211;52.768;12.124;2023-06-10T02:54:19;13.70;99.90
64012;DHT22;50211;52.768;12.124;2023-06-10T02:56:45;13.70;99.90
64012;DHT22;50211;52.768;12.124;2023-06-10T02:59:11;13.80;99.90
64012;DHT22;50211;52.768;12.124;2023-06-10T03:01:36;13.80;99.90
64012;DHT22;50211;52.768;12.124;2023-06-10T03:04:04;13.90;99.90
64012;DHT22;50211;52.768;12.124;2023-06-10T03:06:29;13.90;99.90
64012;DHT22;50211;52.768;12.124;2023-06-10T03:08:55;13.90;99.90
64012;DHT22;50211;52.768;12.124;2023-06-10T03:11:20;13.90;99.90
64012;DHT22;50211;52.768;12.124;2023-06-10T03:13:46;13.90;99.90
64012;DHT22;50211;52.768;12.124;2023-06-10T03:16:11;13.90;99.90
64012;DHT22;50211;52.768;12.124;2023-06-10T03:18:38;13.90;99.90
64012;DHT22;50211;52.768;12.124;2023-06-10T03:21:03;14.00;99.90
64012;DHT22;50211;52.768;12.124;2023-06-10T03:23:29;13.90;99.90
64012;DHT22;50211;52.768;12.124;2023-06-10T03:25:54;14.00;99.90
64012;DHT22;50211;52.768;12.124;2023-06-10T03:28:20;14.00;99.90
64012;DHT22;50211;52.768;12.124;2023-06-10T03:30:46;14.00;99.90
64012;DHT22;50211;52.768;12.124;2023-06-10T03:33:12;14.00;99.90
64012;DHT22;50211;52.768;12.124;2023-06-10T03:35:39;14.10;99.90
64012;DHT22;50211;52.768;12.124;2023-06-10T03:38:05;14.10;99.90
64012;DHT22;50211;52.768;12.124;2023-06-10T03:40:30;14.10;99.90
64012;DHT22;50211;52.768;12.124;2023-06-10T03:42:57;14.10;99.90
64012;DHT22;50211;52.768;12.124;2023-06-10T03:45:22;14.10;99.90
64012;DHT22;50211;52.768;12.124;2023-06-10T03:47:49;14.10;99.90
64012;DHT22;50211;52.768;12.124;2023-06-10T03:50:16;14.20;99.90
64012;DHT22;50211;52.768;12.124;2023-06-10T03:52:41;14.20;99.90
64012;DHT22;50211;52.768;12.124;2023-06-10T03:55:07;14.30;99.90
64012;DHT22;50211;52.768;12.124;2023-06-10T03:57:33;14.30;99.90
64012;DHT22;50211;52.768;12.124;2023-06-10T03:59:58;14.40;99.90
64012;DHT22;50211;52.768;12.124;2023-06-10T04:02:24;14.40;99.90
64012;DHT22;50211;52.768;12.124;2023-06-10T04:04:50;14.50;99.90
64012;DHT22;50211;52.768;12.124;2023-06-10T04:07:16;14.50;99.90
64012;DHT22;50211;52.768;12.124;2023-06-10T04:09:42;14.50;99.90
64012;DHT22;50211;52.768;12.124;2023-06-10T04:12:08;14.60;99.90
64012;DHT22;50211;52.768;12.124;2023-06-10T04:14:35;14.60;99.90
64012;DHT22;50211;52.768;12.124;2023-06-10T04:17:05;14.60;99.90
64012;DHT22;50211;52.768;12.124;2023-06-10T04:19:33;14.60;99.90
64012;DHT22;50211;52.768;12.124;2023-06-10T04:22:00;14.60;99.90
64012;DHT22;50211;52.768;12.124;2023-06-10T04:24:26;14.60;99.90
64012;DHT22;50211;52.768;12.124;2023-06-10T04:26:51;14.70;99.90
64012;DHT22;50211;52.768;12.124;2023-06-10T04:29:17;14.80;99.90
64012;DHT22;50211;52.768;12.124;2023-06-10T04:31:42;14.80;99.90
64012;DHT22;50211;52.768;12.124;2023-06-10T04:34:08;14.90;99.90
64012;DHT22;50211;52.768;12.124;2023-06-10T04:36:33;14.90;99.90
64012;DHT22;50211;52.768;12.124;2023-06-10T04:38:59;14.90;99.90
64012;DHT22;50211;52.768;12.124;2023-06-10T04:41:25;15.00;99.90
64012;DHT22;50211;52.768;12.124;2023-06-10T04:43:53;15.00;99.90
64012;DHT22;50211;52.768;12.124;2023-06-10T04:46:19;15.10;99.90
64012;DHT22;50211;52.768;12.124;2023-06-10T04:48:44;15.10;99.90
64012;DHT22;50211;52.768;12.124;2023-06-10T04:51:12;15.10;99.90
64012;DHT22;50211;52.768;12.124;2023-06-10T04:53:38;15.10;99.90
64012;DHT22;50211;52.768;12.124;2023-06-10T04:56:03;15.10;99.90
64012;DHT22;50211;52.768;12.124;2023-06-10T04:58:29;15.10;99.90
64012;DHT22;50211;52.768;12.124;2023-06-10T05:00:55;15.10;99.90
64012;DHT22;50211;52.768;12.124;2023-06-10T05:03:20;15.20;99.90
64012;DHT22;50211;52.768;12.124;2023-06-10T05:05:46;15.30;99.90
64012;DHT22;50211;52.768;12.124;2023-06-10T05:08:11;15.30;99.90
64012;DHT22;50211;52.768;12.124;2023-06-10T05:10:37;15.40;99.90
64012;DHT22;50211;52.768;12.124;2023-06-10T05:13:03;15.50;99.90
64012;DHT22;50211;52.768;12.124;2023-06-10T05:15:28;15.50;99.90
64012;DHT22;50211;52.768;12.124;2023-06-10T05:17:56;15.50;99.90
64012;DHT22;50211;52.768;12.124;2023-06-10T05:20:22;15.60;99.90
64012;DHT22;50211;52.768;12.124;2023-06-10T05:22:48;15.70;99.90
64012;DHT22;50211;52.768;12.124;2023-06-10T05:25:13;15.80;99.90
64012;DHT22;50211;52.768;12.124;2023-06-10T05:27:39;15.90;99.90
64012;DHT22;50211;52.768;12.124;2023-06-10T05:30:07;16.10;99.90
64012;DHT22;50211;52.768;12.124;2023-06-10T05:32:33;16.10;99.90
64012;DHT22;50211;52.768;12.124;2023-06-10T05:34:59;16.20;99.90
64012;DHT22;50211;52.768;12.124;2023-06-10T05:37:26;16.20;99.90
64012;DHT22;50211;52.768;12.124;2023-06-10T05:39:51;16.20;99.90
64012;DHT22;50211;52.768;12.124;2023-06-10T05:42:17;16.20;99.90
64012;DHT22;50211;52.768;12.124;2023-06-10T05:44:43;16.30;99.90
64012;DHT22;50211;52.768;12.124;2023-06-10T05:47:08;16.40;99.90
64012;DHT22;50211;52.768;12.124;2023-06-10T05:49:34;16.50;99.90
64012;DHT22;50211;52.768;12.124;2023-06-10T05:51:59;16.60;99.90
64012;DHT22;50211;52.768;12.124;2023-06-10T05:54:26;16.80;99.90
64012;DHT22;50211;52.768;12.124;2023-06-10T05:56:52;16.90;99.90
64012;DHT22;50211;52.768;12.124;2023-06-10T05:59:17;17.00;99.90
64012;DHT22;50211;52.768;12.124;2023-06-10T06:01:43;17.10;99.90
64012;DHT22;50211;52.768;12.124;2023-06-10T06:04:08;17.20;99.90
64012;DHT22;50211;52.768;12.124;2023-06-10T06:06:35;17.30;99.90
64012;DHT22;50211;52.768;12.124;2023-06-10T06:09:01;17.40;99.90
64012;DHT22;50211;52.768;12.124;2023-06-10T06:11:26;17.50;99.90
64012;DHT22;50211;52.768;12.124;2023-06-10T06:13:52;17.60;99.90
64012;DHT22;50211;52.768;12.124;2023-06-10T06:16:17;17.60;99.90
64012;DHT22;50211;52.768;12.124;2023-06-10T06:18:44;17.70;99.90
64012;DHT22;50211;52.768;12.124;2023-06-10T06:21:09;17.70;99.90
64012;DHT22;50211;52.768;12.124;2023-06-10T06:23:35;18.00;99.90
64012;DHT22;50211;52.768;12.124;2023-06-10T06:26:00;18.10;99.90
64012;DHT22;50211;52.768;12.124;2023-06-10T06:28:26;18.20;99.90
64012;DHT22;50211;52.768;12.124;2023-06-10T06:30:55;18.30;99.90
64012;DHT22;50211;52.768;12.124;2023-06-10T06:33:20;18.50;99.90
64012;DHT22;50211;52.768;12.124;2023-06-10T06:35:46;18.70;99.90
64012;DHT22;50211;52.768;12.124;2023-06-10T06:38:11;18.80;99.90
64012;DHT22;50211;52.768;12.124;2023-06-10T06:40:37;18.90;99.90
64012;DHT22;50211;52.768;12.124;2023-06-10T06:43:02;19.00;99.90
64012;DHT22;50211;52.768;12.124;2023-06-10T06:45:28;19.00;99.90
64012;DHT22;50211;52.768;12.124;2023-06-10T06:47:53;19.10;99.90
64012;DHT22;50211;52.768;12.124;2023-06-10T06:50:19;19.30;99.90
64012;DHT22;50211;52.768;12.124;2023-06-10T06:52:44;19.40;99.90
64012;DHT22;50211;52.768;12.124;2023-06-10T06:55:10;19.70;99.90
64012;DHT22;50211;52.768;12.124;2023-06-10T06:57:36;19.70;99.90
64012;DHT22;50211;52.768;12.124;2023-06-10T07:00:02;19.50;99.90
64012;DHT22;50211;52.768;12.124;2023-06-10T07:02:28;19.50;99.90
64012;DHT22;50211;52.768;12.124;2023-06-10T07:04:53;19.80;99.90
64012;DHT22;50211;52.768;12.124;2023-06-10T07:07:21;19.90;99.90
64012;DHT22;50211;52.768;12.124;2023-06-10T07:09:46;20.00;99.90
64012;DHT22;50211;52.768;12.124;2023-06-10T07:12:12;20.10;99.90
64012;DHT22;50211;52.768;12.124;2023-06-10T07:14:37;20.30;99.90
64012;DHT22;50211;52.768;12.124;2023-06-10T07:17:03;20.60;99.90
64012;DHT22;50211;52.768;12.124;2023-06-10T07:19:28;20.60;99.90
64012;DHT22;50211;52.768;12.124;2023-06-10T07:21:54;20.80;99.90
64012;DHT22;50211;52.768;12.124;2023-06-10T07:24:19;20.90;99.90
64012;DHT22;50211;52.768;12.124;2023-06-10T07:26:46;21.10;99.90
64012;DHT22;50211;52.768;12.124;2023-06-10T07:29:11;21.20;99.90
64012;DHT22;50211;52.768;12.124;2023-06-10T07:31:38;21.40;99.90
64012;DHT22;50211;52.768;12.124;2023-06-10T07:34:03;21.50;99.90
64012;DHT22;50211;52.768;12.124;2023-06-10T07:36:29;21.70;99.90
64012;DHT22;50211;52.768;12.124;2023-06-10T07:38:54;21.90;99.90
64012;DHT22;50211;52.768;12.124;2023-06-10T07:41:20;22.10;99.90
64012;DHT22;50211;52.768;12.124;2023-06-10T07:43:46;22.30;99.90
64012;DHT22;50211;52.768;12.124;2023-06-10T07:46:11;22.40;99.90
64012;DHT22;50211;52.768;12.124;2023-06-10T07:48:37;22.50;99.90
64012;DHT22;50211;52.768;12.124;2023-06-10T07:51:02;22.70;99.90
64012;DHT22;50211;52.768;12.124;2023-06-10T07:53:28;22.90;99.90
64012;DHT22;50211;52.768;12.124;2023-06-10T07:55:53;23.10;99.90
64012;DHT22;50211;52.768;12.124;2023-06-10T07:58:19;23.20;99.90
64012;DHT22;50211;52.768;12.124;2023-06-10T08:00:46;23.40;99.90
64012;DHT22;50211;52.768;12.124;2023-06-10T08:03:12;23.70;99.90
64012;DHT22;50211;52.768;12.124;2023-06-10T08:05:39;23.70;99.90
64012;DHT22;50211;52.768;12.124;2023-06-10T08:08:05;23.90;99.90
64012;DHT22;50211;52.768;12.124;2023-06-10T08:10:30;24.10;99.90
64012;DHT22;50211;52.768;12.124;2023-06-10T08:12:56;24.20;99.90
64012;DHT22;50211;52.768;12.124;2023-06-10T08:15:21;24.50;99.90
64012;DHT22;50211;52.768;12.124;2023-06-10T08:17:47;24.70;99.90
64012;DHT22;50211;52.768;12.124;2023-06-10T08:20:12;24.80;99.90
64012;DHT22;50211;52.768;12.124;2023-06-10T08:22:38;24.90;99.90
64012;DHT22;50211;52.768;12.124;2023-06-10T08:25:03;24.90;99.90
64012;DHT22;50211;52.768;12.124;2023-06-10T08:27:29;25.00;99.90
64012;DHT22;50211;52.768;12.124;2023-06-10T08:29:54;25.20;99.90
64012;DHT22;50211;52.768;12.124;2023-06-10T08:32:20;25.10;99.90
64012;DHT22;50211;52.768;12.124;2023-06-10T08:34:45;25.20;99.90
64012;DHT22;50211;52.768;12.124;2023-06-10T08:37:11;25.30;99.90
64012;DHT22;50211;52.768;12.124;2023-06-10T08:39:36;25.60;99.90
64012;DHT22;50211;52.768;12.124;2023-06-10T08:42:28;25.50;99.90
64012;DHT22;50211;52.768;12.124;2023-06-10T08:45:01;25.40;99.90
64012;DHT22;50211;52.768;12.124;2023-06-10T08:47:29;25.60;99.90
64012;DHT22;50211;52.768;12.124;2023-06-10T08:49:57;26.00;99.90
64012;DHT22;50211;52.768;12.124;2023-06-10T08:52:29;25.90;99.90
64012;DHT22;50211;52.768;12.124;2023-06-10T08:55:01;26.30;99.90
64012;DHT22;50211;52.768;12.124;2023-06-10T08:57:29;26.20;99.90
64012;DHT22;50211;52.768;12.124;2023-06-10T08:59:57;26.40;99.90
64012;DHT22;50211;52.768;12.124;2023-06-10T09:02:24;26.50;99.90
64012;DHT22;50211;52.768;12.124;2023-06-10T09:04:50;26.70;99.90
64012;DHT22;50211;52.768;12.124;2023-06-10T09:07:16;26.80;99.90
64012;DHT22;50211;52.768;12.124;2023-06-10T09:09:42;26.80;99.90
64012;DHT22;50211;52.768;12.124;2023-06-10T09:12:08;26.80;99.90
64012;DHT22;50211;52.768;12.124;2023-06-10T09:14:34;27.40;99.90
64012;DHT22;50211;52.768;12.124;2023-06-10T09:17:01;27.60;99.90
64012;DHT22;50211;52.768;12.124;2023-06-10T09:19:27;27.90;99.90
64012;DHT22;50211;52.768;12.124;2023-06-10T09:21:53;27.80;99.90
64012;DHT22;50211;52.768;12.124;2023-06-10T09:24:20;27.50;99.90
64012;DHT22;50211;52.768;12.124;2023-06-10T09:26:46;27.80;99.90
64012;DHT22;50211;52.768;12.124;2023-06-10T09:29:11;28.00;99.90
64012;DHT22;50211;52.768;12.124;2023-06-10T09:31:38;28.00;99.90
64012;DHT22;50211;52.768;12.124;2023-06-10T09:34:13;28.20;99.90
64012;DHT22;50211;52.768;12.124;2023-06-10T09:36:39;28.10;99.90
64012;DHT22;50211;52.768;12.124;2023-06-10T09:39:14;28.00;99.90
64012;DHT22;50211;52.768;12.124;2023-06-10T09:41:41;28.10;99.90
64012;DHT22;50211;52.768;12.124;2023-06-10T09:44:16;28.30;99.90
64012;DHT22;50211;52.768;12.124;2023-06-10T09:46:42;28.70;99.90
64012;DHT22;50211;52.768;12.124;2023-06-10T09:49:08;29.10;99.90
64012;DHT22;50211;52.768;12.124;2023-06-10T09:51:33;29.10;99.90
64012;DHT22;50211;52.768;12.124;2023-06-10T09:53:59;29.30;99.90
64012;DHT22;50211;52.768;12.124;2023-06-10T09:56:34;29.90;99.90
64012;DHT22;50211;52.768;12.124;2023-06-10T09:59:00;30.00;99.90
64012;DHT22;50211;52.768;12.124;2023-06-10T10:01:26;30.00;99.90
64012;DHT22;50211;52.768;12.124;2023-06-10T10:03:51;30.30;99.90
64012;DHT22;50211;52.768;12.124;2023-06-10T10:06:19;30.50;99.90
64012;DHT22;50211;52.768;12.124;2023-06-10T10:08:46;30.70;99.90
64012;DHT22;50211;52.768;12.124;2023-06-10T10:11:12;30.00;99.90
64012;DHT22;50211;52.768;12.124;2023-06-10T10:13:38;30.30;99.90
64012;DHT22;50211;52.768;12.124;2023-06-10T10:16:11;30.50;99.90
64012;DHT22;50211;52.768;12.124;2023-06-10T10:18:39;30.80;99.90
64012;DHT22;50211;52.768;12.124;2023-06-10T10:21:12;30.50;99.90
64012;DHT22;50211;52.768;12.124;2023-06-10T10:23:58;30.30;99.90
64012;DHT22;50211;52.768;12.124;2023-06-10T10:26:26;30.70;99.90
64012;DHT22;50211;52.768;12.124;2023-06-10T10:31:50;30.50;99.90
64012;DHT22;50211;52.768;12.124;2023-06-10T10:34:16;30.80;99.90
64012;DHT22;50211;52.768;12.124;2023-06-10T10:36:44;31.00;99.90
64012;DHT22;50211;52.768;12.124;2023-06-10T10:39:10;30.60;99.90
64012;DHT22;50211;52.768;12.124;2023-06-10T10:41:38;31.20;99.90
64012;DHT22;50211;52.768;12.124;2023-06-10T10:44:05;31.60;99.40
64012;DHT22;50211;52.768;12.124;2023-06-10T10:46:51;31.30;99.00
64012;DHT22;50211;52.768;12.124;2023-06-10T10:49:18;31.20;99.00
64012;DHT22;50211;52.768;12.124;2023-06-10T10:52:02;31.40;98.80
64012;DHT22;50211;52.768;12.124;2023-06-10T10:54:32;31.70;98.50
64012;DHT22;50211;52.768;12.124;2023-06-10T10:57:20;31.80;98.20
64012;DHT22;50211;52.768;12.124;2023-06-10T11:02:41;32.00;97.00
64012;DHT22;50211;52.768;12.124;2023-06-10T11:05:09;32.10;96.70
64012;DHT22;50211;52.768;12.124;2023-06-10T11:07:35;31.90;96.60
64012;DHT22;50211;52.768;12.124;2023-06-10T11:10:12;32.10;96.90
64012;DHT22;50211;52.768;12.124;2023-06-10T11:12:56;32.50;95.90
64012;DHT22;50211;52.768;12.124;2023-06-10T11:15:24;32.10;95.80
64012;DHT22;50211;52.768;12.124;2023-06-10T11:18:09;32.10;95.20
64012;DHT22;50211;52.768;12.124;2023-06-10T11:26:18;32.50;95.20
64012;DHT22;50211;52.768;12.124;2023-06-10T11:31:21;32.50;94.20
64012;DHT22;50211;52.768;12.124;2023-06-10T11:33:48;32.70;94.10
64012;DHT22;50211;52.768;12.124;2023-06-10T11:36:17;33.40;93.20
64012;DHT22;50211;52.768;12.124;2023-06-10T11:38:43;33.90;92.80
64012;DHT22;50211;52.768;12.124;2023-06-10T11:41:08;34.00;91.60
64012;DHT22;50211;52.768;12.124;2023-06-10T11:43:35;33.50;92.10
64012;DHT22;50211;52.768;12.124;2023-06-10T11:46:01;33.80;91.60
64012;DHT22;50211;52.768;12.124;2023-06-10T11:48:27;33.20;92.40
64012;DHT22;50211;52.768;12.124;2023-06-10T11:50:55;32.90;92.30
64012;DHT22;50211;52.768;12.124;2023-06-10T11:53:21;32.90;92.50
64012;DHT22;50211;52.768;12.124;2023-06-10T11:55:48;32.60;92.70
64012;DHT22;50211;52.768;12.124;2023-06-10T11:58:17;32.30;92.40
64012;DHT22;50211;52.768;12.124;2023-06-10T12:00:53;32.50;92.90
64012;DHT22;50211;52.768;12.124;2023-06-10T12:03:20;32.70;93.60
64012;DHT22;50211;52.768;12.124;2023-06-10T12:06:05;33.10;92.40
64012;DHT22;50211;52.768;12.124;2023-06-10T12:08:31;33.10;91.80
64012;DHT22;50211;52.768;12.124;2023-06-10T12:10:58;33.00;91.90
64012;DHT22;50211;52.768;12.124;2023-06-10T12:13:26;33.40;91.90
64012;DHT22;50211;52.768;12.124;2023-06-10T12:15:52;33.10;90.90
64012;DHT22;50211;52.768;12.124;2023-06-10T12:18:22;33.20;91.00
64012;DHT22;50211;52.768;12.124;2023-06-10T12:20:48;33.40;90.60
64012;DHT22;50211;52.768;12.124;2023-06-10T12:23:15;33.10;90.50
64012;DHT22;50211;52.768;12.124;2023-06-10T12:25:50;33.20;90.80
64012;DHT22;50211;52.768;12.124;2023-06-10T12:28:17;33.40;90.20
64012;DHT22;50211;52.768;12.124;2023-06-10T12:30:44;33.50;90.10
64012;DHT22;50211;52.768;12.124;2023-06-10T12:33:20;33.30;90.90
64012;DHT22;50211;52.768;12.124;2023-06-10T12:35:50;33.80;90.40
64012;DHT22;50211;52.768;12.124;2023-06-10T12:38:22;33.70;89.90
64012;DHT22;50211;52.768;12.124;2023-06-10T12:40:48;33.30;89.90
64012;DHT22;50211;52.768;12.124;2023-06-10T12:43:18;33.30;90.00
64012;DHT22;50211;52.768;12.124;2023-06-10T12:45:44;33.50;90.30
64012;DHT22;50211;52.768;12.124;2023-06-10T12:50:54;33.50;90.40
64012;DHT22;50211;52.768;12.124;2023-06-10T12:53:20;33.40;89.90
64012;DHT22;50211;52.768;12.124;2023-06-10T12:55:46;33.20;90.10
64012;DHT22;50211;52.768;12.124;2023-06-10T12:58:12;33.40;90.00
64012;DHT22;50211;52.768;12.124;2023-06-10T13:00:38;33.70;90.00
64012;DHT22;50211;52.768;12.124;2023-06-10T13:03:04;33.80;89.70
64012;DHT22;50211;52.768;12.124;2023-06-10T13:05:34;34.10;89.50
64012;DHT22;50211;52.768;12.124;2023-06-10T13:08:02;34.20;87.20
64012;DHT22;50211;52.768;12.124;2023-06-10T13:10:28;34.10;88.60
64012;DHT22;50211;52.768;12.124;2023-06-10T13:12:53;33.60;88.70
64012;DHT22;50211;52.768;12.124;2023-06-10T13:15:22;33.30;87.90
64012;DHT22;50211;52.768;12.124;2023-06-10T13:17:48;33.60;89.30
64012;DHT22;50211;52.768;12.124;2023-06-10T13:20:14;34.20;88.70
64012;DHT22;50211;52.768;12.124;2023-06-10T13:22:41;34.00;87.30
64012;DHT22;50211;52.768;12.124;2023-06-10T13:25:07;33.90;87.00
64012;DHT22;50211;52.768;12.124;2023-06-10T13:27:33;33.90;86.80
64012;DHT22;50211;52.768;12.124;2023-06-10T13:29:59;33.40;86.50
64012;DHT22;50211;52.768;12.124;2023-06-10T13:32:24;33.30;85.40
64012;DHT22;50211;52.768;12.124;2023-06-10T13:34:50;33.50;84.60
64012;DHT22;50211;52.768;12.124;2023-06-10T13:37:16;33.60;85.40
64012;DHT22;50211;52.768;12.124;2023-06-10T13:39:45;33.40;82.60
64012;DHT22;50211;52.768;12.124;2023-06-10T13:42:16;33.40;80.50
64012;DHT22;50211;52.768;12.124;2023-06-10T13:44:42;33.30;78.30
64012;DHT22;50211;52.768;12.124;2023-06-10T13:47:07;33.60;78.50
64012;DHT22;50211;52.768;12.124;2023-06-10T13:49:33;34.00;79.50
64012;DHT22;50211;52.768;12.124;2023-06-10T13:51:58;34.10;76.90
64012;DHT22;50211;52.768;12.124;2023-06-10T13:54:24;33.80;76.00
64012;DHT22;50211;52.768;12.124;2023-06-10T13:56:50;33.60;76.20
64012;DHT22;50211;52.768;12.124;2023-06-10T13:59:15;33.70;74.70
64012;DHT22;50211;52.768;12.124;2023-06-10T14:01:40;33.70;73.40
64012;DHT22;50211;52.768;12.124;2023-06-10T14:04:06;33.40;75.50
64012;DHT22;50211;52.768;12.124;2023-06-10T14:06:33;33.30;74.70
64012;DHT22;50211;52.768;12.124;2023-06-10T14:09:02;33.50;73.60
64012;DHT22;50211;52.768;12.124;2023-06-10T14:11:27;33.00;73.70
64012;DHT22;50211;52.768;12.124;2023-06-10T14:13:53;33.10;73.20
64012;DHT22;50211;52.768;12.124;2023-06-10T14:16:21;33.10;73.00
64012;DHT22;50211;52.768;12.124;2023-06-10T14:18:47;32.90;72.40
64012;DHT22;50211;52.768;12.124;2023-06-10T14:21:12;33.20;73.20
64012;DHT22;50211;52.768;12.124;2023-06-10T14:23:38;33.70;73.70
64012;DHT22;50211;52.768;12.124;2023-06-10T14:26:03;33.80;73.90
64012;DHT22;50211;52.768;12.124;2023-06-10T14:28:30;33.50;71.10
64012;DHT22;50211;52.768;12.124;2023-06-10T14:30:56;33.70;72.40
64012;DHT22;50211;52.768;12.124;2023-06-10T14:33:23;34.00;71.70
64012;DHT22;50211;52.768;12.124;2023-06-10T14:35:48;33.60;72.10
64012;DHT22;50211;52.768;12.124;2023-06-10T14:38:14;33.60;70.40
64012;DHT22;50211;52.768;12.124;2023-06-10T14:40:39;33.60;70.80
64012;DHT22;50211;52.768;12.124;2023-06-10T14:43:05;33.90;69.10
64012;DHT22;50211;52.768;12.124;2023-06-10T14:45:38;33.70;68.10
64012;DHT22;50211;52.768;12.124;2023-06-10T14:48:05;33.80;66.90
64012;DHT22;50211;52.768;12.124;2023-06-10T14:50:30;34.10;67.70
64012;DHT22;50211;52.768;12.124;2023-06-10T14:52:57;33.90;67.20
64012;DHT22;50211;52.768;12.124;2023-06-10T14:55:23;33.80;69.10
64012;DHT22;50211;52.768;12.124;2023-06-10T14:57:49;33.60;68.40
64012;DHT22;50211;52.768;12.124;2023-06-10T15:00:15;33.60;68.80
64012;DHT22;50211;52.768;12.124;2023-06-10T15:02:42;33.70;69.50
64012;DHT22;50211;52.768;12.124;2023-06-10T15:05:08;33.70;70.60
64012;DHT22;50211;52.768;12.124;2023-06-10T15:07:34;33.70;71.20
64012;DHT22;50211;52.768;12.124;2023-06-10T15:09:59;33.60;70.40
64012;DHT22;50211;52.768;12.124;2023-06-10T15:12:25;33.40;70.50
64012;DHT22;50211;52.768;12.124;2023-06-10T15:14:50;33.10;71.20
64012;DHT22;50211;52.768;12.124;2023-06-10T15:17:16;33.10;71.30
64012;DHT22;50211;52.768;12.124;2023-06-10T15:19:41;33.10;72.10
64012;DHT22;50211;52.768;12.124;2023-06-10T15:22:07;32.80;73.10
64012;DHT22;50211;52.768;12.124;2023-06-10T15:24:32;32.60;73.80
64012;DHT22;50211;52.768;12.124;2023-06-10T15:26:58;32.40;74.10
64012;DHT22;50211;52.768;12.124;2023-06-10T15:29:23;32.10;75.70
64012;DHT22;50211;52.768;12.124;2023-06-10T15:31:49;31.80;75.70
64012;DHT22;50211;52.768;12.124;2023-06-10T15:34:14;31.80;76.20